Time;durP1;ratioP1;P1;durP2;ratioP2;P2;SDS_P1;SDS_P2;PMS_P1;PMS_P2;Temp;Humidity;BMP_temperature;BMP_pressure;BME280_temperature;BME280_humidity;BME280_pressure;Samples;Min_cycle;Max_cycle;Signal;HPM_P1;HPM_P2
2024/04/13 00:00:39;;;;;;;;;51.75;32.00;;;;;;;;10435248;28;43626;-60
2024/04/13 00:05:44;;;;;;;;;45.50;28.75;;;;;;;;10438875;28;43584;-61
2024/04/13 00:10:47;;;;;;;;;49.50;30.75;;;;;;;;10488309;27;43353;-60
2024/04/13 00:15:57;;;;;;;;;62.50;43.75;;;;;;;;10498871;27;44197;-61
2024/04/13 00:21:02;;;;;;;;;56.00;38.25;;;;;;;;10491526;27;43669;-61
2024/04/13 00:26:06;;;;;;;;;58.00;38.50;;;;;;;;10506829;27;43836;-63
2024/04/13 00:31:11;;;;;;;;;62.50;42.00;;;;;;;;10492886;27;42988;-61
2024/04/13 00:36:16;;;;;;;;;58.25;38.50;;;;;;;;10497483;28;43091;-62
2024/04/13 00:41:19;;;;;;;;;54.75;38.50;;;;;;;;10500241;27;42956;-62
2024/04/13 00:46:26;;;;;;;;;58.75;38.25;;;;;;;;10507662;27;43578;-60
2024/04/13 00:51:30;;;;;;;;;63.00;40.25;;;;;;;;10481934;28;43287;-62
2024/04/13 00:56:33;;;;;;;;;61.25;40.25;;;;;;;;10517288;27;49411;-63
2024/04/13 01:01:37;;;;;;;;;75.50;51.75;;;;;;;;10493465;28;43811;-61
2024/04/13 01:06:42;;;;;;;;;75.50;53.50;;;;;;;;10494143;27;44242;-63
2024/04/13 01:11:45;;;;;;;;;85.00;57.50;;;;;;;;10490084;27;43021;-63
2024/04/13 01:16:49;;;;;;;;;75.25;50.25;;;;;;;;10490425;27;43046;-63
2024/04/13 01:21:52;;;;;;;;;71.00;49.50;;;;;;;;10499694;27;42916;-63
2024/04/13 01:26:57;;;;;;;;;83.50;56.75;;;;;;;;10487085;27;43746;-61
2024/04/13 01:32:00;;;;;;;;;77.75;53.00;;;;;;;;10492842;28;42919;-62
2024/04/13 01:37:07;;;;;;;;;75.75;56.00;;;;;;;;10487720;27;44020;-62
2024/04/13 01:42:10;;;;;;;;;75.50;53.25;;;;;;;;10497706;27;43321;-62
2024/04/13 01:47:14;;;;;;;;;74.25;52.25;;;;;;;;10499925;27;42935;-65
2024/04/13 01:52:20;;;;;;;;;75.00;51.00;;;;;;;;10499702;27;42985;-63
2024/04/13 01:57:23;;;;;;;;;71.50;49.50;;;;;;;;10500055;27;43132;-64
2024/04/13 02:02:26;;;;;;;;;70.50;50.50;;;;;;;;10497933;27;43742;-62
2024/04/13 02:07:33;;;;;;;;;70.75;50.00;;;;;;;;10501178;27;43161;-61
2024/04/13 02:12:37;;;;;;;;;74.75;50.75;;;;;;;;10474142;28;43251;-62
2024/04/13 02:17:41;;;;;;;;;71.00;48.00;;;;;;;;10471595;27;43018;-61
2024/04/13 02:22:45;;;;;;;;;73.75;50.25;;;;;;;;10473180;28;43043;-61
2024/04/13 02:27:48;;;;;;;;;75.00;50.25;;;;;;;;10485557;27;43683;-62
2024/04/13 02:32:52;;;;;;;;;70.75;49.00;;;;;;;;10480764;27;43824;-60
2024/04/13 02:37:59;;;;;;;;;72.25;50.00;;;;;;;;10466773;28;43629;-63
2024/04/13 02:43:03;;;;;;;;;74.50;52.50;;;;;;;;10445173;28;43816;-63
2024/04/13 02:48:08;;;;;;;;;70.50;51.00;;;;;;;;10466382;28;42870;-63
2024/04/13 02:53:11;;;;;;;;;74.75;52.25;;;;;;;;10481630;27;43254;-63
2024/04/13 02:58:15;;;;;;;;;74.00;49.25;;;;;;;;10483889;27;43145;-63
2024/04/13 03:03:20;;;;;;;;;71.25;49.75;;;;;;;;10454636;28;43293;-63
2024/04/13 03:08:24;;;;;;;;;70.75;49.50;;;;;;;;10491142;27;44594;-61
2024/04/13 03:13:28;;;;;;;;;78.75;55.50;;;;;;;;10495763;28;42928;-61
2024/04/13 03:18:33;;;;;;;;;80.00;54.50;;;;;;;;10496978;28;43099;-61
2024/04/13 03:23:38;;;;;;;;;76.00;55.00;;;;;;;;10493829;28;43048;-61
2024/04/13 03:28:42;;;;;;;;;76.25;51.75;;;;;;;;10494971;28;43768;-60
2024/04/13 03:33:47;;;;;;;;;78.00;54.25;;;;;;;;10511292;27;42998;-61
2024/04/13 03:38:55;;;;;;;;;74.00;54.75;;;;;;;;10494605;28;43057;-61
2024/04/13 03:43:58;;;;;;;;;73.25;52.75;;;;;;;;10496638;27;43027;-60
2024/04/13 03:49:02;;;;;;;;;76.25;53.50;;;;;;;;10496521;28;43035;-60
2024/04/13 03:54:07;;;;;;;;;73.25;52.00;;;;;;;;10495287;28;42995;-61
2024/04/13 03:59:13;;;;;;;;;72.25;51.00;;;;;;;;10495785;28;43283;-61
2024/04/13 04:04:16;;;;;;;;;73.00;52.75;;;;;;;;10495117;27;43686;-62
2024/04/13 04:09:20;;;;;;;;;71.25;53.50;;;;;;;;10494006;28;43022;-64
2024/04/13 04:14:24;;;;;;;;;71.75;50.50;;;;;;;;10495946;28;44520;-64
2024/04/13 04:19:28;;;;;;;;;75.00;52.00;;;;;;;;10495157;28;43740;-64
2024/04/13 04:24:32;;;;;;;;;69.75;50.50;;;;;;;;10494919;28;43015;-64
2024/04/13 04:29:36;;;;;;;;;68.50;48.25;;;;;;;;10495714;28;43021;-64
2024/04/13 04:34:40;;;;;;;;;72.00;49.50;;;;;;;;10494921;28;43012;-64
2024/04/13 04:39:44;;;;;;;;;73.00;50.50;;;;;;;;10495424;28;43066;-64
2024/04/13 04:44:47;;;;;;;;;70.50;48.25;;;;;;;;10495036;28;43998;-64
2024/04/13 04:49:52;;;;;;;;;74.00;51.50;;;;;;;;10494440;28;43072;-64
2024/04/13 04:54:59;;;;;;;;;72.25;50.00;;;;;;;;10486903;28;43724;-64
2024/04/13 05:00:04;;;;;;;;;68.25;49.25;;;;;;;;10485857;28;43170;-64
2024/04/13 05:05:09;;;;;;;;;72.50;50.25;;;;;;;;10473469;27;49313;-64
2024/04/13 05:10:13;;;;;;;;;76.00;52.75;;;;;;;;10469407;28;43005;-64
2024/04/13 05:15:17;;;;;;;;;77.75;52.25;;;;;;;;10455084;28;43074;-64
2024/04/13 05:20:21;;;;;;;;;74.50;52.25;;;;;;;;10458808;28;43020;-64
2024/04/13 05:25:25;;;;;;;;;72.75;51.00;;;;;;;;10409797;28;45227;-64
2024/04/13 05:30:29;;;;;;;;;77.50;57.50;;;;;;;;10401872;28;43319;-64
2024/04/13 05:35:32;;;;;;;;;74.25;52.00;;;;;;;;10417295;28;42985;-64
2024/04/13 05:40:36;;;;;;;;;76.50;54.75;;;;;;;;10421832;28;44139;-64
2024/04/13 05:45:40;;;;;;;;;74.25;51.50;;;;;;;;10458810;28;43664;-64
2024/04/13 05:50:51;;;;;;;;;76.75;53.50;;;;;;;;10459077;28;43644;-64
2024/04/13 05:55:55;;;;;;;;;72.75;52.50;;;;;;;;10458644;28;42977;-64
2024/04/13 06:00:59;;;;;;;;;69.75;50.75;;;;;;;;10454808;28;48288;-63
2024/04/13 06:06:04;;;;;;;;;72.00;51.50;;;;;;;;10442336;28;49971;-63
2024/04/13 06:11:08;;;;;;;;;73.00;51.50;;;;;;;;10440951;28;43032;-63
2024/04/13 06:16:11;;;;;;;;;76.50;57.00;;;;;;;;10460124;28;42951;-62
2024/04/13 06:21:15;;;;;;;;;77.75;53.75;;;;;;;;10457381;28;43591;-63
2024/04/13 06:26:19;;;;;;;;;75.00;51.50;;;;;;;;10452216;28;42985;-63
2024/04/13 06:31:23;;;;;;;;;72.50;55.00;;;;;;;;10448357;28;43077;-63
2024/04/13 06:36:27;;;;;;;;;77.00;57.25;;;;;;;;10447408;28;43498;-63
2024/04/13 06:41:31;;;;;;;;;76.50;56.00;;;;;;;;10460892;28;43628;-63
2024/04/13 06:46:36;;;;;;;;;77.00;55.50;;;;;;;;10436301;28;45426;-63
2024/04/13 06:51:39;;;;;;;;;69.25;52.50;;;;;;;;10456121;28;42928;-63
2024/04/13 06:56:43;;;;;;;;;72.50;53.00;;;;;;;;10451922;28;42925;-63
2024/04/13 07:01:49;;;;;;;;;76.50;57.50;;;;;;;;10454619;28;43023;-63
2024/04/13 07:06:54;;;;;;;;;75.00;52.00;;;;;;;;10449659;28;43913;-63
2024/04/13 07:11:57;;;;;;;;;77.50;54.75;;;;;;;;10495802;28;43292;-63
2024/04/13 07:17:04;;;;;;;;;72.75;54.25;;;;;;;;10497024;28;42999;-63
2024/04/13 07:22:07;;;;;;;;;70.50;52.00;;;;;;;;10497903;28;43033;-63
2024/04/13 07:27:11;;;;;;;;;72.00;53.00;;;;;;;;10512667;27;43729;-62
2024/04/13 07:32:16;;;;;;;;;73.25;51.50;;;;;;;;10497509;27;43581;-62
2024/04/13 07:37:19;;;;;;;;;72.25;50.00;;;;;;;;10515554;27;42990;-61
2024/04/13 07:42:23;;;;;;;;;70.75;51.25;;;;;;;;10498156;27;43128;-62
2024/04/13 07:47:27;;;;;;;;;67.75;48.25;;;;;;;;10501820;27;43007;-63
2024/04/13 07:52:31;;;;;;;;;65.75;47.75;;;;;;;;10497906;28;42940;-63
2024/04/13 07:57:34;;;;;;;;;68.50;49.50;;;;;;;;10496977;28;42880;-64
2024/04/13 08:02:38;;;;;;;;;69.00;45.50;;;;;;;;10495242;28;42985;-63
2024/04/13 08:07:43;;;;;;;;;65.50;45.25;;;;;;;;10500406;27;42977;-63
2024/04/13 08:12:47;;;;;;;;;62.25;45.00;;;;;;;;10471767;28;43636;-62
2024/04/13 08:17:50;;;;;;;;;60.50;43.25;;;;;;;;10452613;28;43763;-62
2024/04/13 08:22:55;;;;;;;;;61.00;39.75;;;;;;;;10451583;28;43075;-62
2024/04/13 08:27:59;;;;;;;;;55.50;39.75;;;;;;;;10452249;28;43502;-63
2024/04/13 08:33:03;;;;;;;;;56.25;36.50;;;;;;;;10452485;28;42976;-64
2024/04/13 08:38:07;;;;;;;;;58.75;38.25;;;;;;;;10449560;28;43284;-64
2024/04/13 08:43:11;;;;;;;;;58.50;39.00;;;;;;;;10452526;28;43656;-64
2024/04/13 08:48:15;;;;;;;;;55.00;39.50;;;;;;;;10446228;28;43622;-64
2024/04/13 08:53:21;;;;;;;;;57.25;42.00;;;;;;;;10456956;28;43020;-65
2024/04/13 08:58:26;;;;;;;;;63.25;44.00;;;;;;;;10462358;28;43051;-63
2024/04/13 09:03:31;;;;;;;;;60.00;42.00;;;;;;;;10459411;27;43054;-63
2024/04/13 09:08:37;;;;;;;;;58.25;41.50;;;;;;;;10459249;28;43317;-60
2024/04/13 09:13:41;;;;;;;;;61.25;41.75;;;;;;;;10449179;28;43514;-61
2024/04/13 09:18:45;;;;;;;;;64.50;43.50;;;;;;;;10439776;28;43489;-60
2024/04/13 09:23:50;;;;;;;;;59.75;41.75;;;;;;;;10442296;28;43057;-61
2024/04/13 09:28:55;;;;;;;;;57.25;41.00;;;;;;;;10435977;28;43486;-61
2024/04/13 09:33:58;;;;;;;;;62.00;42.50;;;;;;;;10439561;28;42929;-61
2024/04/13 09:39:04;;;;;;;;;59.00;40.00;;;;;;;;10434641;28;43030;-66
2024/04/13 09:44:09;;;;;;;;;57.00;40.50;;;;;;;;10443353;28;43847;-60
2024/04/13 09:49:12;;;;;;;;;58.50;42.50;;;;;;;;10454148;28;44558;-61
2024/04/13 09:54:16;;;;;;;;;59.25;42.00;;;;;;;;10457243;28;43043;-61
2024/04/13 09:59:23;;;;;;;;;60.00;42.75;;;;;;;;10443219;28;43827;-62
2024/04/13 10:04:25;;;;;;;;;59.25;40.25;;;;;;;;10437510;28;43095;-61
2024/04/13 10:09:32;;;;;;;;;57.00;41.25;;;;;;;;10451010;28;43064;-61
2024/04/13 10:14:36;;;;;;;;;60.25;41.75;;;;;;;;10461807;28;42941;-64
2024/04/13 10:19:45;;;;;;;;;61.50;43.00;;;;;;;;10440459;28;45083;-64
2024/04/13 10:24:51;;;;;;;;;59.25;40.75;;;;;;;;10454740;28;42999;-64
2024/04/13 10:29:59;;;;;;;;;61.50;42.50;;;;;;;;10446451;28;43044;-64
2024/04/13 10:35:07;;;;;;;;;59.75;43.00;;;;;;;;10457813;28;43042;-64
2024/04/13 10:40:10;;;;;;;;;56.75;40.00;;;;;;;;10456148;28;43686;-61
2024/04/13 10:45:16;;;;;;;;;59.00;41.25;;;;;;;;10460994;28;48540;-63
2024/04/13 10:50:21;;;;;;;;;60.25;41.25;;;;;;;;10450124;28;48303;-62
2024/04/13 10:55:26;;;;;;;;;55.75;39.25;;;;;;;;10451421;28;42992;-63
2024/04/13 11:00:29;;;;;;;;;60.25;39.75;;;;;;;;10461352;28;49005;-63
2024/04/13 11:05:33;;;;;;;;;59.75;39.75;;;;;;;;10448408;28;49535;-64
2024/04/13 11:10:45;;;;;;;;;59.25;43.00;;;;;;;;10470512;27;43817;-61
2024/04/13 11:15:49;;;;;;;;;57.75;41.00;;;;;;;;10494829;27;48465;-64
2024/04/13 11:20:54;;;;;;;;;60.75;40.75;;;;;;;;10496915;27;50016;-64
2024/04/13 11:25:59;;;;;;;;;65.25;42.00;;;;;;;;10483093;28;49774;-62
2024/04/13 11:31:03;;;;;;;;;60.25;43.00;;;;;;;;10489909;27;48754;-62
2024/04/13 11:36:07;;;;;;;;;62.75;43.25;;;;;;;;10493946;27;43108;-61
2024/04/13 11:41:11;;;;;;;;;62.75;42.75;;;;;;;;10495443;28;42994;-61
2024/04/13 11:46:14;;;;;;;;;62.00;42.50;;;;;;;;10496607;28;43189;-60
2024/04/13 11:51:19;;;;;;;;;59.00;41.00;;;;;;;;10480299;28;44668;-62
2024/04/13 11:56:23;;;;;;;;;58.00;39.50;;;;;;;;10492418;28;48762;-62
2024/04/13 12:01:26;;;;;;;;;59.00;41.50;;;;;;;;10494696;28;43659;-62
2024/04/13 12:06:30;;;;;;;;;55.50;40.50;;;;;;;;10488763;28;43252;-62
2024/04/13 12:11:35;;;;;;;;;61.25;40.75;;;;;;;;10454142;28;43582;-62
2024/04/13 12:16:41;;;;;;;;;58.25;39.00;;;;;;;;10451902;28;43263;-61
2024/04/13 12:21:44;;;;;;;;;58.75;41.00;;;;;;;;10450698;28;43165;-65
2024/04/13 12:26:48;;;;;;;;;54.50;38.50;;;;;;;;10450522;28;43008;-60
2024/04/13 12:31:52;;;;;;;;;55.75;40.50;;;;;;;;10450555;28;43702;-60
2024/04/13 12:36:55;;;;;;;;;54.50;39.50;;;;;;;;10434132;28;43076;-63
2024/04/13 12:42:00;;;;;;;;;60.00;41.00;;;;;;;;10452150;28;43451;-63
2024/04/13 12:47:04;;;;;;;;;61.00;43.00;;;;;;;;10450695;28;42989;-63
2024/04/13 12:52:08;;;;;;;;;55.75;38.75;;;;;;;;10450600;28;42962;-61
2024/04/13 12:57:11;;;;;;;;;59.25;40.50;;;;;;;;10447608;28;43027;-63
2024/04/13 13:02:16;;;;;;;;;54.00;37.75;;;;;;;;10446800;28;43588;-60
2024/04/13 13:07:20;;;;;;;;;60.00;40.75;;;;;;;;10446773;28;43755;-62
2024/04/13 13:12:24;;;;;;;;;62.75;42.00;;;;;;;;10447780;28;43041;-64
2024/04/13 13:17:28;;;;;;;;;62.25;41.75;;;;;;;;10447789;28;43001;-62
2024/04/13 13:22:31;;;;;;;;;60.50;39.25;;;;;;;;10449741;28;43764;-62
2024/04/13 13:27:36;;;;;;;;;62.50;42.75;;;;;;;;10449173;28;43576;-61
2024/04/13 13:32:40;;;;;;;;;60.50;41.75;;;;;;;;10448191;28;43339;-61
2024/04/13 13:37:43;;;;;;;;;62.50;40.25;;;;;;;;10453600;28;43623;-66
2024/04/13 13:42:47;;;;;;;;;63.25;42.50;;;;;;;;10457000;28;43126;-63
2024/04/13 13:47:51;;;;;;;;;61.00;42.75;;;;;;;;10454679;28;43898;-65
2024/04/13 13:52:55;;;;;;;;;61.25;43.00;;;;;;;;10438460;28;43025;-62
2024/04/13 13:58:00;;;;;;;;;60.25;42.00;;;;;;;;10452175;28;43581;-64
2024/04/13 14:03:04;;;;;;;;;64.25;41.75;;;;;;;;10452032;28;43673;-64
2024/04/13 14:08:09;;;;;;;;;59.50;42.25;;;;;;;;10448149;28;44152;-65
2024/04/13 14:13:13;;;;;;;;;59.75;40.00;;;;;;;;10471735;28;43832;-64
2024/04/13 14:18:16;;;;;;;;;55.75;37.25;;;;;;;;10458755;28;42922;-64
2024/04/13 14:23:20;;;;;;;;;55.50;37.25;;;;;;;;10450775;28;43181;-64
2024/04/13 14:28:26;;;;;;;;;51.25;35.25;;;;;;;;10453274;28;43049;-64
2024/04/13 14:33:29;;;;;;;;;53.75;35.00;;;;;;;;10441232;28;45552;-64
2024/04/13 14:38:32;;;;;;;;;53.25;34.50;;;;;;;;10457389;28;43043;-64
2024/04/13 14:43:37;;;;;;;;;49.00;31.50;;;;;;;;10455996;28;43236;-64
2024/04/13 14:48:41;;;;;;;;;46.75;31.50;;;;;;;;10454223;28;43902;-64
2024/04/13 14:53:45;;;;;;;;;51.25;32.75;;;;;;;;10458451;28;43027;-64
2024/04/13 14:58:49;;;;;;;;;53.25;37.00;;;;;;;;10438603;28;43220;-64
2024/04/13 15:03:53;;;;;;;;;54.25;33.00;;;;;;;;10454937;28;43299;-62
2024/04/13 15:08:58;;;;;;;;;56.00;38.25;;;;;;;;10454606;28;43065;-62
2024/04/13 15:14:28;;;;;;;;;57.75;37.50;;;;;;;;10454273;28;43071;-63
2024/04/13 15:19:31;;;;;;;;;58.75;39.50;;;;;;;;10445741;28;42970;-62
2024/04/13 15:24:35;;;;;;;;;65.25;45.00;;;;;;;;10450741;28;43680;-64
2024/04/13 15:29:40;;;;;;;;;65.50;46.25;;;;;;;;10453973;28;43239;-64
2024/04/13 15:34:43;;;;;;;;;66.00;44.25;;;;;;;;10455079;28;42945;-64
2024/04/13 15:39:48;;;;;;;;;63.75;44.00;;;;;;;;10453631;28;44186;-64
2024/04/13 15:44:52;;;;;;;;;61.50;42.25;;;;;;;;10457160;28;43043;-64
2024/04/13 15:49:58;;;;;;;;;63.50;42.25;;;;;;;;10449599;28;43050;-64
2024/04/13 15:55:02;;;;;;;;;61.75;41.00;;;;;;;;10437149;28;42961;-64
2024/04/13 16:00:09;;;;;;;;;64.25;41.75;;;;;;;;10436206;28;44109;-65
2024/04/13 16:05:13;;;;;;;;;60.75;43.00;;;;;;;;10455578;28;43610;-65
2024/04/13 16:10:17;;;;;;;;;66.50;43.00;;;;;;;;10474385;27;49715;-61
2024/04/13 16:15:22;;;;;;;;;67.25;44.50;;;;;;;;10496648;27;44023;-66
2024/04/13 16:20:25;;;;;;;;;59.00;42.75;;;;;;;;10484057;28;43037;-66
2024/04/13 16:25:29;;;;;;;;;64.25;43.75;;;;;;;;10495615;28;42931;-65
2024/04/13 16:30:33;;;;;;;;;64.50;42.25;;;;;;;;10496132;28;42972;-65
2024/04/13 16:35:38;;;;;;;;;62.25;40.75;;;;;;;;10495524;28;43280;-65
2024/04/13 16:40:42;;;;;;;;;61.00;42.75;;;;;;;;10495925;28;42923;-65
2024/04/13 16:45:47;;;;;;;;;60.25;42.00;;;;;;;;10495486;28;43673;-65
2024/04/13 16:50:56;;;;;;;;;61.25;40.25;;;;;;;;10477177;28;46018;-65
2024/04/13 16:56:00;;;;;;;;;63.00;43.50;;;;;;;;10478996;27;45500;-65
2024/04/13 17:01:04;;;;;;;;;64.25;41.50;;;;;;;;10498903;27;49651;-65
2024/04/13 17:06:09;;;;;;;;;60.50;40.75;;;;;;;;10487191;27;42970;-65
2024/04/13 17:11:12;;;;;;;;;62.75;42.00;;;;;;;;10490765;27;43216;-65
2024/04/13 17:16:23;;;;;;;;;60.00;39.00;;;;;;;;10501733;27;44223;-65
2024/04/13 17:21:26;;;;;;;;;61.25;40.50;;;;;;;;10501428;27;44423;-65
2024/04/13 17:26:30;;;;;;;;;58.00;39.75;;;;;;;;10497280;27;43195;-65
2024/04/13 17:31:35;;;;;;;;;57.25;39.50;;;;;;;;10501303;28;42982;-65
2024/04/13 17:36:38;;;;;;;;;60.50;39.00;;;;;;;;10501633;28;43827;-65
2024/04/13 17:41:42;;;;;;;;;54.75;38.75;;;;;;;;10486211;28;44643;-65
2024/04/13 17:46:45;;;;;;;;;60.75;38.75;;;;;;;;10506210;27;42959;-65
2024/04/13 17:51:49;;;;;;;;;56.25;38.25;;;;;;;;10483276;27;43240;-65
2024/04/13 17:56:53;;;;;;;;;56.00;37.25;;;;;;;;10485459;27;45460;-65
2024/04/13 18:01:57;;;;;;;;;59.75;40.00;;;;;;;;10504715;27;43112;-64
2024/04/13 18:07:02;;;;;;;;;56.75;40.00;;;;;;;;10492440;27;42938;-64
2024/04/13 18:12:06;;;;;;;;;55.25;38.00;;;;;;;;10479556;27;43141;-64
2024/04/13 18:17:10;;;;;;;;;54.50;38.00;;;;;;;;10502131;28;43126;-64
2024/04/13 18:22:14;;;;;;;;;57.25;37.25;;;;;;;;10498484;27;43004;-64
2024/04/13 18:27:17;;;;;;;;;60.25;38.75;;;;;;;;10481936;28;42943;-64
2024/04/13 18:32:21;;;;;;;;;54.75;35.75;;;;;;;;10499986;27;43324;-65
2024/04/13 18:37:25;;;;;;;;;54.00;38.25;;;;;;;;10498784;28;42933;-64
2024/04/13 18:42:29;;;;;;;;;49.50;35.50;;;;;;;;10498684;28;43569;-65
2024/04/13 18:47:34;;;;;;;;;60.25;39.25;;;;;;;;10499435;28;43246;-64
2024/04/13 18:52:38;;;;;;;;;61.75;38.75;;;;;;;;10498670;27;42896;-64
2024/04/13 18:57:41;;;;;;;;;51.50;34.75;;;;;;;;10482071;28;43592;-64
2024/04/13 19:02:46;;;;;;;;;57.50;38.25;;;;;;;;10499128;28;42981;-64
2024/04/13 19:07:51;;;;;;;;;57.00;38.50;;;;;;;;10497440;28;44188;-64
2024/04/13 19:12:55;;;;;;;;;54.00;34.00;;;;;;;;10497611;27;43496;-64
2024/04/13 19:17:59;;;;;;;;;53.00;34.50;;;;;;;;10496830;28;42944;-64
2024/04/13 19:23:03;;;;;;;;;54.75;38.25;;;;;;;;10504151;28;43688;-64
2024/04/13 19:28:06;;;;;;;;;54.25;38.25;;;;;;;;10494822;28;42881;-64
2024/04/13 19:33:10;;;;;;;;;55.50;36.50;;;;;;;;10528014;27;43040;-64
2024/04/13 19:38:14;;;;;;;;;53.50;34.50;;;;;;;;10498357;27;43622;-64
2024/04/13 19:43:19;;;;;;;;;56.75;36.75;;;;;;;;10506228;27;42931;-64
2024/04/13 19:48:22;;;;;;;;;52.00;34.00;;;;;;;;10469577;27;45836;-64
2024/04/13 19:53:26;;;;;;;;;54.25;34.75;;;;;;;;10480950;27;43000;-64
2024/04/13 19:58:30;;;;;;;;;52.25;36.50;;;;;;;;10464969;28;43018;-64
2024/04/13 20:03:34;;;;;;;;;52.25;34.75;;;;;;;;10494637;27;43286;-65
2024/04/13 20:08:41;;;;;;;;;52.75;34.00;;;;;;;;10487489;27;43478;-65
2024/04/13 20:13:45;;;;;;;;;53.75;35.00;;;;;;;;10505199;27;43125;-64
2024/04/13 20:18:50;;;;;;;;;52.25;31.25;;;;;;;;10495389;27;43690;-64
2024/04/13 20:23:53;;;;;;;;;52.00;34.25;;;;;;;;10486700;28;43223;-64
2024/04/13 20:28:57;;;;;;;;;50.00;31.50;;;;;;;;10501768;27;43505;-65
2024/04/13 20:34:01;;;;;;;;;49.00;32.00;;;;;;;;10492416;28;43297;-64
2024/04/13 20:39:05;;;;;;;;;52.00;31.75;;;;;;;;10495834;28;43613;-64
2024/04/13 20:44:08;;;;;;;;;49.50;33.00;;;;;;;;10494659;28;43658;-64
2024/04/13 20:49:12;;;;;;;;;49.00;31.50;;;;;;;;10488925;27;49116;-65
2024/04/13 20:54:16;;;;;;;;;51.50;32.50;;;;;;;;10514745;27;43574;-64
2024/04/13 20:59:20;;;;;;;;;52.75;33.75;;;;;;;;10503807;28;43732;-64
2024/04/13 21:04:24;;;;;;;;;48.00;29.00;;;;;;;;10503968;28;43128;-65
2024/04/13 21:09:30;;;;;;;;;52.00;31.50;;;;;;;;10489747;27;45429;-64
2024/04/13 21:14:34;;;;;;;;;43.25;26.50;;;;;;;;10478613;27;44113;-64
2024/04/13 21:19:37;;;;;;;;;49.50;29.25;;;;;;;;10459390;28;43027;-67
2024/04/13 21:24:41;;;;;;;;;47.75;28.75;;;;;;;;10442168;28;43088;-63
2024/04/13 21:29:46;;;;;;;;;46.75;29.50;;;;;;;;10458031;28;43736;-63
2024/04/13 21:34:51;;;;;;;;;45.00;27.25;;;;;;;;10442253;28;45415;-63
2024/04/13 21:39:54;;;;;;;;;44.00;27.75;;;;;;;;10456417;28;42975;-63
2024/04/13 21:44:58;;;;;;;;;46.25;31.25;;;;;;;;10458279;28;43498;-63
2024/04/13 21:50:03;;;;;;;;;47.50;29.75;;;;;;;;10455783;28;48718;-64
2024/04/13 21:55:06;;;;;;;;;47.75;31.00;;;;;;;;10459179;28;43737;-64
2024/04/13 22:00:11;;;;;;;;;50.25;33.50;;;;;;;;10441686;28;42913;-63
2024/04/13 22:05:16;;;;;;;;;52.25;32.25;;;;;;;;10464593;28;42997;-63
2024/04/13 22:10:20;;;;;;;;;51.25;32.00;;;;;;;;10451224;28;48500;-63
2024/04/13 22:15:23;;;;;;;;;51.25;32.00;;;;;;;;10436881;28;48734;-64
2024/04/13 22:20:27;;;;;;;;;56.25;34.75;;;;;;;;10449892;28;48635;-65
2024/04/13 22:25:31;;;;;;;;;53.75;37.25;;;;;;;;10451036;28;48778;-64
2024/04/13 22:30:35;;;;;;;;;53.00;33.50;;;;;;;;10455954;28;48840;-64
2024/04/13 22:35:39;;;;;;;;;47.50;32.75;;;;;;;;10448442;28;49053;-65
2024/04/13 22:40:43;;;;;;;;;52.25;32.75;;;;;;;;10450064;28;43582;-69
2024/04/13 22:45:47;;;;;;;;;48.25;29.50;;;;;;;;10453888;28;44077;-66
2024/04/13 22:50:51;;;;;;;;;48.75;31.00;;;;;;;;10451080;28;43949;-65
2024/04/13 22:55:55;;;;;;;;;53.75;34.00;;;;;;;;10462812;28;48390;-63
2024/04/13 23:00:59;;;;;;;;;48.50;31.25;;;;;;;;10455163;28;44542;-64
2024/04/13 23:06:04;;;;;;;;;50.50;34.00;;;;;;;;10453061;28;43693;-69
2024/04/13 23:11:10;;;;;;;;;51.25;34.50;;;;;;;;10452742;28;43959;-62
2024/04/13 23:16:14;;;;;;;;;54.50;35.00;;;;;;;;10454199;28;43113;-65
2024/04/13 23:21:17;;;;;;;;;50.25;33.25;;;;;;;;10450686;28;43023;-64
2024/04/13 23:26:27;;;;;;;;;46.25;29.25;;;;;;;;10442270;28;43044;-64
2024/04/13 23:31:29;;;;;;;;;50.25;32.00;;;;;;;;10441256;28;43273;-64
2024/04/13 23:36:31;;;;;;;;;48.50;29.75;;;;;;;;10452298;28;43472;-64
2024/04/13 23:41:35;;;;;;;;;54.00;33.75;;;;;;;;10453404;28;43877;-64
2024/04/13 23:46:39;;;;;;;;;52.00;31.75;;;;;;;;10450015;28;43568;-64
2024/04/13 23:51:43;;;;;;;;;48.00;31.75;;;;;;;;10429510;28;42982;-63
2024/04/13 23:56:47;;;;;;;;;47.50;31.00;;;;;;;;10448775;28;42958;-65
